Terminal Aerodrome Forecast
Issued by NWS

Current Version | Previous Version | Text Only | Print | Product List | Glossary On
Versions: 1 2 3 4 5 6 7 8 9 10 11 12
000
FTUS46 KSTO 292300
TAFMHR
TAF
KMHR 292335Z 3000/3024 23007KT P6SM BKN200
     FM300500 16005KT P6SM BKN200
     FM301600 23006KT P6SM SCT250=

USA.gov is the U.S. government's official web portal to all federal, state and local government web resources and services.